sensor_id;sensor_type;location;lat;lon;timestamp;pressure;altitude;pressure_sealevel;temperature;humidity
53908;BME280;40469;47.998;7.794;2023-02-15T00:01:10;100331.25;;;-1.25;100.00
53908;BME280;40469;47.998;7.794;2023-02-15T00:03:36;100324.72;;;-1.20;100.00
53908;BME280;40469;47.998;7.794;2023-02-15T00:06:03;100338.19;;;-1.09;100.00
53908;BME280;40469;47.998;7.794;2023-02-15T00:08:29;100329.34;;;-1.00;100.00
53908;BME280;40469;47.998;7.794;2023-02-15T00:11:04;100331.13;;;-0.99;100.00
53908;BME280;40469;47.998;7.794;2023-02-15T00:13:29;100336.59;;;-0.92;100.00
53908;BME280;40469;47.998;7.794;2023-02-15T00:16:05;100325.09;;;-0.99;100.00
53908;BME280;40469;47.998;7.794;2023-02-15T00:18:31;100323.78;;;-0.92;100.00
53908;BME280;40469;47.998;7.794;2023-02-15T00:20:57;100318.31;;;-0.99;100.00
53908;BME280;40469;47.998;7.794;2023-02-15T00:23:23;100319.38;;;-0.95;100.00
53908;BME280;40469;47.998;7.794;2023-02-15T00:25:48;100326.72;;;-0.86;100.00
53908;BME280;40469;47.998;7.794;2023-02-15T00:28:14;100315.63;;;-0.85;100.00
53908;BME280;40469;47.998;7.794;2023-02-15T00:30:39;100317.34;;;-0.86;100.00
53908;BME280;40469;47.998;7.794;2023-02-15T00:33:04;100320.69;;;-0.87;100.00
53908;BME280;40469;47.998;7.794;2023-02-15T00:35:30;100319.63;;;-0.90;100.00
53908;BME280;40469;47.998;7.794;2023-02-15T00:37:56;100326.25;;;-0.79;100.00
53908;BME280;40469;47.998;7.794;2023-02-15T00:40:21;100325.72;;;-1.03;100.00
53908;BME280;40469;47.998;7.794;2023-02-15T00:42:47;100324.22;;;-1.00;100.00
53908;BME280;40469;47.998;7.794;2023-02-15T00:45:12;100320.31;;;-1.08;100.00
53908;BME280;40469;47.998;7.794;2023-02-15T00:47:37;100319.88;;;-1.01;100.00
53908;BME280;40469;47.998;7.794;2023-02-15T00:50:03;100319.09;;;-1.00;100.00
53908;BME280;40469;47.998;7.794;2023-02-15T00:52:29;100316.72;;;-0.97;100.00
53908;BME280;40469;47.998;7.794;2023-02-15T00:54:54;100315.00;;;-1.26;100.00
53908;BME280;40469;47.998;7.794;2023-02-15T00:57:19;100310.06;;;-1.38;100.00
53908;BME280;40469;47.998;7.794;2023-02-15T00:59:45;100305.81;;;-1.37;100.00
53908;BME280;40469;47.998;7.794;2023-02-15T01:02:10;100304.56;;;-1.29;100.00
53908;BME280;40469;47.998;7.794;2023-02-15T01:04:35;100307.06;;;-1.30;100.00
53908;BME280;40469;47.998;7.794;2023-02-15T01:07:01;100298.94;;;-1.23;100.00
53908;BME280;40469;47.998;7.794;2023-02-15T01:09:28;100311.13;;;-1.19;100.00
53908;BME280;40469;47.998;7.794;2023-02-15T01:11:54;100308.13;;;-1.12;100.00
53908;BME280;40469;47.998;7.794;2023-02-15T01:14:19;100297.88;;;-1.12;100.00
53908;BME280;40469;47.998;7.794;2023-02-15T01:16:44;100301.94;;;-1.16;100.00
53908;BME280;40469;47.998;7.794;2023-02-15T01:19:10;100305.75;;;-1.09;100.00
53908;BME280;40469;47.998;7.794;2023-02-15T01:21:35;100311.22;;;-1.03;100.00
53908;BME280;40469;47.998;7.794;2023-02-15T01:24:01;100312.03;;;-1.04;100.00
53908;BME280;40469;47.998;7.794;2023-02-15T01:26:27;100311.66;;;-1.10;100.00
53908;BME280;40469;47.998;7.794;2023-02-15T01:28:52;100315.03;;;-1.11;100.00
53908;BME280;40469;47.998;7.794;2023-02-15T01:31:20;100314.41;;;-1.07;100.00
53908;BME280;40469;47.998;7.794;2023-02-15T01:33:46;100315.03;;;-1.11;100.00
53908;BME280;40469;47.998;7.794;2023-02-15T01:36:12;100314.84;;;-1.14;100.00
53908;BME280;40469;47.998;7.794;2023-02-15T01:38:38;100315.19;;;-1.23;100.00
53908;BME280;40469;47.998;7.794;2023-02-15T01:41:05;100311.66;;;-1.25;100.00
53908;BME280;40469;47.998;7.794;2023-02-15T01:43:48;100322.34;;;-1.32;100.00
53908;BME280;40469;47.998;7.794;2023-02-15T01:46:16;100313.84;;;-1.31;100.00
53908;BME280;40469;47.998;7.794;2023-02-15T01:48:48;100315.66;;;-1.43;100.00
53908;BME280;40469;47.998;7.794;2023-02-15T01:51:17;100313.28;;;-1.40;100.00
53908;BME280;40469;47.998;7.794;2023-02-15T01:53:49;100303.69;;;-1.73;100.00
53908;BME280;40469;47.998;7.794;2023-02-15T01:56:23;100307.16;;;-1.57;100.00
53908;BME280;40469;47.998;7.794;2023-02-15T01:58:51;100304.97;;;-1.51;100.00
53908;BME280;40469;47.998;7.794;2023-02-15T02:01:19;100307.00;;;-1.45;100.00
53908;BME280;40469;47.998;7.794;2023-02-15T02:06:19;100307.44;;;-1.53;100.00
53908;BME280;40469;47.998;7.794;2023-02-15T02:08:45;100305.41;;;-1.58;100.00
53908;BME280;40469;47.998;7.794;2023-02-15T02:11:13;100306.25;;;-1.73;100.00
53908;BME280;40469;47.998;7.794;2023-02-15T02:13:40;100296.47;;;-1.93;100.00
53908;BME280;40469;47.998;7.794;2023-02-15T02:16:43;100303.50;;;-1.76;100.00
53908;BME280;40469;47.998;7.794;2023-02-15T02:24:55;100297.16;;;-1.96;100.00
53908;BME280;40469;47.998;7.794;2023-02-15T02:27:37;100293.91;;;-1.93;100.00
53908;BME280;40469;47.998;7.794;2023-02-15T02:39:16;100279.06;;;-1.99;100.00
53908;BME280;40469;47.998;7.794;2023-02-15T02:41:58;100290.72;;;-2.31;100.00
53908;BME280;40469;47.998;7.794;2023-02-15T02:47:16;100281.38;;;-2.17;100.00
53908;BME280;40469;47.998;7.794;2023-02-15T02:49:44;100279.28;;;-2.09;100.00
53908;BME280;40469;47.998;7.794;2023-02-15T02:55:06;100270.91;;;-2.06;100.00
53908;BME280;40469;47.998;7.794;2023-02-15T02:57:34;100266.69;;;-2.06;100.00
53908;BME280;40469;47.998;7.794;2023-02-15T03:00:04;100274.53;;;-2.03;100.00
53908;BME280;40469;47.998;7.794;2023-02-15T03:02:37;100272.56;;;-2.07;100.00
53908;BME280;40469;47.998;7.794;2023-02-15T03:05:09;100272.47;;;-2.08;100.00
53908;BME280;40469;47.998;7.794;2023-02-15T03:07:39;100277.69;;;-2.07;100.00
53908;BME280;40469;47.998;7.794;2023-02-15T03:10:07;100278.75;;;-2.03;100.00
53908;BME280;40469;47.998;7.794;2023-02-15T03:12:39;100281.31;;;-2.03;100.00
53908;BME280;40469;47.998;7.794;2023-02-15T03:15:24;100280.00;;;-2.25;100.00
53908;BME280;40469;47.998;7.794;2023-02-15T03:17:57;100277.06;;;-2.31;100.00
53908;BME280;40469;47.998;7.794;2023-02-15T03:20:33;100274.81;;;-2.40;100.00
53908;BME280;40469;47.998;7.794;2023-02-15T03:23:02;100280.31;;;-2.34;100.00
53908;BME280;40469;47.998;7.794;2023-02-15T03:25:38;100278.91;;;-2.29;100.00
53908;BME280;40469;47.998;7.794;2023-02-15T03:28:13;100276.16;;;-2.32;100.00
53908;BME280;40469;47.998;7.794;2023-02-15T03:30:42;100286.81;;;-2.39;100.00
53908;BME280;40469;47.998;7.794;2023-02-15T03:33:09;100278.25;;;-2.53;100.00
53908;BME280;40469;47.998;7.794;2023-02-15T03:38:24;100282.09;;;-2.46;100.00
53908;BME280;40469;47.998;7.794;2023-02-15T03:40:53;100280.72;;;-2.41;100.00
53908;BME280;40469;47.998;7.794;2023-02-15T03:48:50;100292.72;;;-2.53;100.00
53908;BME280;40469;47.998;7.794;2023-02-15T03:51:19;100289.28;;;-2.54;100.00
53908;BME280;40469;47.998;7.794;2023-02-15T03:54:01;100280.44;;;-2.59;100.00
53908;BME280;40469;47.998;7.794;2023-02-15T03:56:27;100291.56;;;-2.72;100.00
53908;BME280;40469;47.998;7.794;2023-02-15T03:58:53;100290.66;;;-2.86;100.00
53908;BME280;40469;47.998;7.794;2023-02-15T04:01:41;100288.22;;;-2.84;100.00
53908;BME280;40469;47.998;7.794;2023-02-15T04:04:33;100288.28;;;-2.82;100.00
53908;BME280;40469;47.998;7.794;2023-02-15T04:07:00;100286.03;;;-2.64;100.00
53908;BME280;40469;47.998;7.794;2023-02-15T04:09:25;100282.31;;;-2.70;100.00
53908;BME280;40469;47.998;7.794;2023-02-15T04:12:09;100282.41;;;-2.68;100.00
53908;BME280;40469;47.998;7.794;2023-02-15T04:14:35;100275.50;;;-2.69;100.00
53908;BME280;40469;47.998;7.794;2023-02-15T04:17:19;100275.31;;;-2.86;100.00
53908;BME280;40469;47.998;7.794;2023-02-15T04:19:46;100270.66;;;-2.91;100.00
53908;BME280;40469;47.998;7.794;2023-02-15T04:22:30;100281.31;;;-2.85;100.00
53908;BME280;40469;47.998;7.794;2023-02-15T04:25:14;100278.78;;;-2.72;100.00
53908;BME280;40469;47.998;7.794;2023-02-15T04:27:43;100276.78;;;-2.62;100.00
53908;BME280;40469;47.998;7.794;2023-02-15T04:30:09;100281.63;;;-2.80;100.00
53908;BME280;40469;47.998;7.794;2023-02-15T04:32:35;100279.03;;;-2.94;100.00
53908;BME280;40469;47.998;7.794;2023-02-15T04:35:01;100282.38;;;-2.95;100.00
53908;BME280;40469;47.998;7.794;2023-02-15T04:37:26;100276.69;;;-2.91;100.00
53908;BME280;40469;47.998;7.794;2023-02-15T04:39:52;100280.16;;;-2.77;100.00
53908;BME280;40469;47.998;7.794;2023-02-15T04:42:17;100276.19;;;-2.85;100.00
53908;BME280;40469;47.998;7.794;2023-02-15T04:44:43;100266.94;;;-2.83;100.00
53908;BME280;40469;47.998;7.794;2023-02-15T04:47:08;100266.06;;;-2.70;100.00
53908;BME280;40469;47.998;7.794;2023-02-15T04:49:34;100276.00;;;-3.01;100.00
53908;BME280;40469;47.998;7.794;2023-02-15T04:51:59;100264.69;;;-2.92;100.00
53908;BME280;40469;47.998;7.794;2023-02-15T04:54:24;100260.78;;;-3.00;100.00
53908;BME280;40469;47.998;7.794;2023-02-15T04:56:50;100268.44;;;-2.87;100.00
53908;BME280;40469;47.998;7.794;2023-02-15T04:59:15;100260.16;;;-2.82;100.00
53908;BME280;40469;47.998;7.794;2023-02-15T05:01:41;100273.66;;;-2.85;100.00
53908;BME280;40469;47.998;7.794;2023-02-15T05:04:06;100268.31;;;-3.15;100.00
53908;BME280;40469;47.998;7.794;2023-02-15T05:06:31;100267.63;;;-2.99;100.00
53908;BME280;40469;47.998;7.794;2023-02-15T05:08:57;100267.94;;;-2.94;100.00
53908;BME280;40469;47.998;7.794;2023-02-15T05:11:24;100272.16;;;-3.08;100.00
53908;BME280;40469;47.998;7.794;2023-02-15T05:13:50;100269.56;;;-3.21;100.00
53908;BME280;40469;47.998;7.794;2023-02-15T05:16:15;100269.94;;;-3.29;100.00
53908;BME280;40469;47.998;7.794;2023-02-15T05:18:41;100273.31;;;-3.16;100.00
53908;BME280;40469;47.998;7.794;2023-02-15T05:21:06;100270.56;;;-3.06;100.00
53908;BME280;40469;47.998;7.794;2023-02-15T05:23:31;100275.28;;;-3.12;100.00
53908;BME280;40469;47.998;7.794;2023-02-15T05:25:57;100263.09;;;-3.30;100.00
53908;BME280;40469;47.998;7.794;2023-02-15T05:28:40;100273.03;;;-3.08;100.00
53908;BME280;40469;47.998;7.794;2023-02-15T05:31:15;100268.09;;;-3.18;100.00
53908;BME280;40469;47.998;7.794;2023-02-15T05:33:42;100271.06;;;-3.12;100.00
53908;BME280;40469;47.998;7.794;2023-02-15T05:36:08;100271.94;;;-3.11;100.00
53908;BME280;40469;47.998;7.794;2023-02-15T05:38:34;100265.25;;;-3.22;100.00
53908;BME280;40469;47.998;7.794;2023-02-15T05:41:01;100270.66;;;-3.18;100.00
53908;BME280;40469;47.998;7.794;2023-02-15T05:43:27;100274.50;;;-3.11;100.00
53908;BME280;40469;47.998;7.794;2023-02-15T05:45:54;100271.44;;;-3.19;100.00
53908;BME280;40469;47.998;7.794;2023-02-15T05:48:21;100281.13;;;-3.27;100.00
53908;BME280;40469;47.998;7.794;2023-02-15T05:50:57;100282.25;;;-3.48;100.00
53908;BME280;40469;47.998;7.794;2023-02-15T05:53:23;100282.22;;;-3.36;100.00
53908;BME280;40469;47.998;7.794;2023-02-15T05:55:48;100285.09;;;-3.32;100.00
53908;BME280;40469;47.998;7.794;2023-02-15T05:58:14;100296.47;;;-3.27;100.00
53908;BME280;40469;47.998;7.794;2023-02-15T06:00:39;100299.97;;;-3.38;100.00
53908;BME280;40469;47.998;7.794;2023-02-15T06:03:04;100294.91;;;-3.25;100.00
53908;BME280;40469;47.998;7.794;2023-02-15T06:05:30;100284.13;;;-3.20;100.00
53908;BME280;40469;47.998;7.794;2023-02-15T06:07:55;100281.06;;;-3.15;100.00
53908;BME280;40469;47.998;7.794;2023-02-15T06:10:21;100289.56;;;-3.41;100.00
53908;BME280;40469;47.998;7.794;2023-02-15T06:12:46;100291.88;;;-3.57;100.00
53908;BME280;40469;47.998;7.794;2023-02-15T06:15:11;100284.72;;;-3.50;100.00
53908;BME280;40469;47.998;7.794;2023-02-15T06:17:37;100289.19;;;-3.59;100.00
53908;BME280;40469;47.998;7.794;2023-02-15T06:20:06;100295.34;;;-3.44;100.00
53908;BME280;40469;47.998;7.794;2023-02-15T06:22:35;100293.63;;;-3.31;100.00
53908;BME280;40469;47.998;7.794;2023-02-15T06:25:01;100296.94;;;-3.32;100.00
53908;BME280;40469;47.998;7.794;2023-02-15T06:27:26;100298.63;;;-3.33;100.00
53908;BME280;40469;47.998;7.794;2023-02-15T06:29:52;100295.28;;;-3.32;100.00
53908;BME280;40469;47.998;7.794;2023-02-15T06:32:17;100300.41;;;-3.18;100.00
53908;BME280;40469;47.998;7.794;2023-02-15T06:34:42;100301.03;;;-3.09;100.00
53908;BME280;40469;47.998;7.794;2023-02-15T06:37:08;100308.41;;;-3.14;100.00
53908;BME280;40469;47.998;7.794;2023-02-15T06:39:33;100304.56;;;-3.07;100.00
53908;BME280;40469;47.998;7.794;2023-02-15T06:41:59;100307.59;;;-3.13;100.00
53908;BME280;40469;47.998;7.794;2023-02-15T06:44:24;100312.31;;;-3.19;100.00
53908;BME280;40469;47.998;7.794;2023-02-15T06:46:50;100313.41;;;-3.15;100.00
53908;BME280;40469;47.998;7.794;2023-02-15T06:49:15;100300.75;;;-3.14;100.00
53908;BME280;40469;47.998;7.794;2023-02-15T06:51:40;100310.25;;;-3.11;100.00
53908;BME280;40469;47.998;7.794;2023-02-15T06:54:06;100316.19;;;-3.37;100.00
53908;BME280;40469;47.998;7.794;2023-02-15T06:56:31;100314.09;;;-3.43;100.00
53908;BME280;40469;47.998;7.794;2023-02-15T06:58:56;100317.59;;;-3.29;100.00
53908;BME280;40469;47.998;7.794;2023-02-15T07:01:22;100318.84;;;-3.36;100.00
53908;BME280;40469;47.998;7.794;2023-02-15T07:03:47;100307.56;;;-3.51;100.00
53908;BME280;40469;47.998;7.794;2023-02-15T07:06:12;100311.88;;;-3.38;100.00
53908;BME280;40469;47.998;7.794;2023-02-15T07:08:38;100309.72;;;-3.32;100.00
53908;BME280;40469;47.998;7.794;2023-02-15T07:11:05;100315.34;;;-3.25;100.00
53908;BME280;40469;47.998;7.794;2023-02-15T07:13:50;100315.16;;;-3.14;100.00
53908;BME280;40469;47.998;7.794;2023-02-15T07:16:15;100303.56;;;-3.09;100.00
53908;BME280;40469;47.998;7.794;2023-02-15T07:18:40;100320.63;;;-2.96;100.00
53908;BME280;40469;47.998;7.794;2023-02-15T07:21:07;100318.06;;;-2.96;100.00
53908;BME280;40469;47.998;7.794;2023-02-15T07:23:36;100314.50;;;-2.98;100.00
53908;BME280;40469;47.998;7.794;2023-02-15T07:26:02;100317.25;;;-2.95;100.00
53908;BME280;40469;47.998;7.794;2023-02-15T07:28:28;100318.25;;;-2.93;100.00
53908;BME280;40469;47.998;7.794;2023-02-15T07:30:53;100314.53;;;-2.85;100.00
53908;BME280;40469;47.998;7.794;2023-02-15T07:33:19;100306.00;;;-2.86;100.00
53908;BME280;40469;47.998;7.794;2023-02-15T07:35:54;100304.91;;;-2.89;100.00
53908;BME280;40469;47.998;7.794;2023-02-15T07:38:21;100303.16;;;-2.77;100.00
53908;BME280;40469;47.998;7.794;2023-02-15T07:40:46;100300.50;;;-2.78;100.00
53908;BME280;40469;47.998;7.794;2023-02-15T07:43:12;100294.69;;;-2.89;100.00
53908;BME280;40469;47.998;7.794;2023-02-15T07:45:37;100293.00;;;-2.89;100.00
53908;BME280;40469;47.998;7.794;2023-02-15T07:48:03;100301.56;;;-2.75;100.00
53908;BME280;40469;47.998;7.794;2023-02-15T07:50:29;100299.78;;;-2.76;100.00
53908;BME280;40469;47.998;7.794;2023-02-15T07:52:54;100291.13;;;-2.91;100.00
53908;BME280;40469;47.998;7.794;2023-02-15T07:55:20;100294.28;;;-2.69;100.00
53908;BME280;40469;47.998;7.794;2023-02-15T07:57:47;100293.13;;;-2.60;100.00
53908;BME280;40469;47.998;7.794;2023-02-15T08:00:15;100292.25;;;-2.61;100.00
53908;BME280;40469;47.998;7.794;2023-02-15T08:02:42;100288.31;;;-2.56;100.00
53908;BME280;40469;47.998;7.794;2023-02-15T08:05:07;100292.63;;;-2.55;100.00
53908;BME280;40469;47.998;7.794;2023-02-15T08:07:33;100289.28;;;-2.54;100.00
53908;BME280;40469;47.998;7.794;2023-02-15T08:09:58;100289.28;;;-2.54;100.00
53908;BME280;40469;47.998;7.794;2023-02-15T08:12:26;100290.47;;;-2.49;100.00
53908;BME280;40469;47.998;7.794;2023-02-15T08:14:52;100287.09;;;-2.48;100.00
53908;BME280;40469;47.998;7.794;2023-02-15T08:17:17;100299.22;;;-2.45;100.00
53908;BME280;40469;47.998;7.794;2023-02-15T08:19:43;100293.31;;;-2.57;100.00
53908;BME280;40469;47.998;7.794;2023-02-15T08:22:11;100287.59;;;-2.53;100.00
53908;BME280;40469;47.998;7.794;2023-02-15T08:24:37;100302.25;;;-2.77;100.00
53908;BME280;40469;47.998;7.794;2023-02-15T08:27:04;100307.56;;;-2.88;100.00
53908;BME280;40469;47.998;7.794;2023-02-15T08:29:31;100303.53;;;-2.71;100.00
53908;BME280;40469;47.998;7.794;2023-02-15T08:31:59;100306.66;;;-2.61;100.00
53908;BME280;40469;47.998;7.794;2023-02-15T08:34:27;100308.53;;;-2.72;100.00
53908;BME280;40469;47.998;7.794;2023-02-15T08:36:53;100299.69;;;-2.77;100.00
53908;BME280;40469;47.998;7.794;2023-02-15T08:39:19;100303.25;;;-2.75;100.00
53908;BME280;40469;47.998;7.794;2023-02-15T08:41:46;100294.84;;;-2.86;100.00
53908;BME280;40469;47.998;7.794;2023-02-15T08:44:12;100295.25;;;-2.67;100.00
53908;BME280;40469;47.998;7.794;2023-02-15T08:46:42;100288.88;;;-2.46;100.00
53908;BME280;40469;47.998;7.794;2023-02-15T08:49:08;100284.66;;;-2.46;100.00
53908;BME280;40469;47.998;7.794;2023-02-15T08:51:36;100282.38;;;-2.55;100.00
53908;BME280;40469;47.998;7.794;2023-02-15T08:54:05;100286.41;;;-2.32;100.00
53908;BME280;40469;47.998;7.794;2023-02-15T08:56:35;100280.09;;;-2.37;100.00
53908;BME280;40469;47.998;7.794;2023-02-15T08:59:02;100279.22;;;-2.24;100.00
53908;BME280;40469;47.998;7.794;2023-02-15T09:01:30;100272.97;;;-2.01;100.00
53908;BME280;40469;47.998;7.794;2023-02-15T09:04:01;100273.31;;;-1.95;100.00
53908;BME280;40469;47.998;7.794;2023-02-15T09:06:27;100275.78;;;-1.96;100.00
53908;BME280;40469;47.998;7.794;2023-02-15T09:08:54;100268.09;;;-1.96;100.00
53908;BME280;40469;47.998;7.794;2023-02-15T09:11:22;100276.19;;;-2.03;100.00
53908;BME280;40469;47.998;7.794;2023-02-15T09:13:53;100281.16;;;-2.06;100.00
53908;BME280;40469;47.998;7.794;2023-02-15T09:16:20;100273.81;;;-1.87;100.00
53908;BME280;40469;47.998;7.794;2023-02-15T09:18:46;100278.44;;;-1.66;100.00
53908;BME280;40469;47.998;7.794;2023-02-15T09:21:18;100276.06;;;-1.63;100.00
53908;BME280;40469;47.998;7.794;2023-02-15T09:23:46;100276.16;;;-1.62;100.00
53908;BME280;40469;47.998;7.794;2023-02-15T09:26:14;100274.25;;;-1.79;100.00
53908;BME280;40469;47.998;7.794;2023-02-15T09:28:40;100275.22;;;-1.77;100.00
53908;BME280;40469;47.998;7.794;2023-02-15T09:31:10;100272.16;;;-1.72;100.00
53908;BME280;40469;47.998;7.794;2023-02-15T09:33:36;100278.72;;;-1.62;100.00
53908;BME280;40469;47.998;7.794;2023-02-15T09:36:03;100275.78;;;-1.68;100.00
53908;BME280;40469;47.998;7.794;2023-02-15T09:38:29;100275.03;;;-1.52;100.00
53908;BME280;40469;47.998;7.794;2023-02-15T09:41:50;100272.84;;;-1.46;100.00
53908;BME280;40469;47.998;7.794;2023-02-15T09:52:29;100275.97;;;-1.07;100.00
53908;BME280;40469;47.998;7.794;2023-02-15T09:55:13;100269.75;;;-0.96;100.00
53908;BME280;40469;47.998;7.794;2023-02-15T09:57:53;100275.22;;;-0.74;100.00
53908;BME280;40469;47.998;7.794;2023-02-15T10:08:55;100286.28;;;-0.90;100.00
53908;BME280;40469;47.998;7.794;2023-02-15T10:28:23;100276.94;;;-0.44;100.00
53908;BME280;40469;47.998;7.794;2023-02-15T10:31:01;100272.00;;;0.07;100.00
53908;BME280;40469;47.998;7.794;2023-02-15T10:57:40;100245.16;;;3.36;100.00
53908;BME280;40469;47.998;7.794;2023-02-15T11:00:37;100236.03;;;3.45;100.00
53908;BME280;40469;47.998;7.794;2023-02-15T11:03:36;100234.78;;;3.80;100.00
53908;BME280;40469;47.998;7.794;2023-02-15T11:06:09;100227.09;;;3.82;100.00
53908;BME280;40469;47.998;7.794;2023-02-15T11:08:41;100216.94;;;3.86;100.00
53908;BME280;40469;47.998;7.794;2023-02-15T11:11:11;100214.19;;;4.06;100.00
53908;BME280;40469;47.998;7.794;2023-02-15T11:13:43;100204.47;;;4.23;100.00
53908;BME280;40469;47.998;7.794;2023-02-15T11:16:17;100205.69;;;4.32;100.00
53908;BME280;40469;47.998;7.794;2023-02-15T11:18:57;100200.72;;;4.39;100.00
53908;BME280;40469;47.998;7.794;2023-02-15T11:21:33;100189.06;;;4.75;100.00
53908;BME280;40469;47.998;7.794;2023-02-15T11:24:09;100191.41;;;5.22;100.00
53908;BME280;40469;47.998;7.794;2023-02-15T11:26:42;100187.91;;;4.93;100.00
53908;BME280;40469;47.998;7.794;2023-02-15T11:31:56;100170.50;;;5.16;100.00
53908;BME280;40469;47.998;7.794;2023-02-15T11:34:40;100171.69;;;4.99;100.00
53908;BME280;40469;47.998;7.794;2023-02-15T11:37:17;100170.00;;;4.73;100.00
53908;BME280;40469;47.998;7.794;2023-02-15T11:39:43;100167.47;;;5.02;100.00
53908;BME280;40469;47.998;7.794;2023-02-15T11:42:19;100164.38;;;5.41;100.00
53908;BME280;40469;47.998;7.794;2023-02-15T11:47:29;100152.47;;;4.39;100.00
53908;BME280;40469;47.998;7.794;2023-02-15T11:49:54;100146.72;;;5.01;100.00
53908;BME280;40469;47.998;7.794;2023-02-15T11:52:20;100143.31;;;5.59;100.00
53908;BME280;40469;47.998;7.794;2023-02-15T11:54:48;100138.72;;;6.10;100.00
53908;BME280;40469;47.998;7.794;2023-02-15T11:57:37;100137.47;;;6.27;100.00
53908;BME280;40469;47.998;7.794;2023-02-15T12:00:11;100137.69;;;6.36;100.00
53908;BME280;40469;47.998;7.794;2023-02-15T12:02:43;100128.81;;;6.28;100.00
53908;BME280;40469;47.998;7.794;2023-02-15T12:05:14;100118.94;;;6.81;100.00
53908;BME280;40469;47.998;7.794;2023-02-15T12:07:54;100119.03;;;6.86;100.00
53908;BME280;40469;47.998;7.794;2023-02-15T12:13:15;100117.78;;;6.70;100.00
53908;BME280;40469;47.998;7.794;2023-02-15T12:15:52;100110.47;;;6.20;100.00
53908;BME280;40469;47.998;7.794;2023-02-15T12:21:05;100107.06;;;6.55;100.00
53908;BME280;40469;47.998;7.794;2023-02-15T12:23:32;100090.41;;;6.13;100.00
53908;BME280;40469;47.998;7.794;2023-02-15T12:25:59;100095.31;;;6.02;100.00
53908;BME280;40469;47.998;7.794;2023-02-15T12:28:36;100090.28;;;6.42;100.00
53908;BME280;40469;47.998;7.794;2023-02-15T12:31:09;100091.75;;;6.66;100.00
53908;BME280;40469;47.998;7.794;2023-02-15T12:33:43;100077.94;;;7.05;100.00
53908;BME280;40469;47.998;7.794;2023-02-15T12:36:20;100068.13;;;6.93;100.00
53908;BME280;40469;47.998;7.794;2023-02-15T12:39:04;100076.59;;;6.84;100.00
53908;BME280;40469;47.998;7.794;2023-02-15T12:41:30;100074.63;;;6.74;100.00
53908;BME280;40469;47.998;7.794;2023-02-15T12:44:09;100066.38;;;6.92;100.00
53908;BME280;40469;47.998;7.794;2023-02-15T12:46:40;100075.41;;;7.49;100.00
53908;BME280;40469;47.998;7.794;2023-02-15T12:51:52;100057.25;;;7.50;100.00
53908;BME280;40469;47.998;7.794;2023-02-15T12:54:33;100050.28;;;7.95;100.00
53908;BME280;40469;47.998;7.794;2023-02-15T12:59:57;100056.88;;;7.76;100.00
53908;BME280;40469;47.998;7.794;2023-02-15T13:02:26;100054.16;;;7.70;100.00
53908;BME280;40469;47.998;7.794;2023-02-15T13:04:53;100047.94;;;7.62;100.00
53908;BME280;40469;47.998;7.794;2023-02-15T13:07:19;100050.59;;;7.65;100.00
53908;BME280;40469;47.998;7.794;2023-02-15T13:09:46;100046.94;;;7.55;100.00
53908;BME280;40469;47.998;7.794;2023-02-15T13:12:21;100048.53;;;7.94;100.00
53908;BME280;40469;47.998;7.794;2023-02-15T13:14:50;100046.38;;;7.70;100.00
53908;BME280;40469;47.998;7.794;2023-02-15T13:17:28;100040.63;;;7.88;100.00
53908;BME280;40469;47.998;7.794;2023-02-15T13:20:06;100036.47;;;7.96;100.00
53908;BME280;40469;47.998;7.794;2023-02-15T13:22:42;100034.09;;;8.11;100.00
53908;BME280;40469;47.998;7.794;2023-02-15T13:25:17;100038.13;;;8.43;100.00
53908;BME280;40469;47.998;7.794;2023-02-15T13:27:45;100030.31;;;7.94;100.00
53908;BME280;40469;47.998;7.794;2023-02-15T13:30:44;100023.06;;;7.76;100.00
53908;BME280;40469;47.998;7.794;2023-02-15T13:35:50;100024.88;;;7.78;100.00
53908;BME280;40469;47.998;7.794;2023-02-15T13:41:10;100030.53;;;8.03;100.00
53908;BME280;40469;47.998;7.794;2023-02-15T13:47:25;100016.53;;;8.48;100.00
53908;BME280;40469;47.998;7.794;2023-02-15T13:57:36;99994.84;;;7.97;100.00
53908;BME280;40469;47.998;7.794;2023-02-15T14:00:23;99994.88;;;7.99;100.00
53908;BME280;40469;47.998;7.794;2023-02-15T14:16:45;99984.41;;;7.94;100.00
53908;BME280;40469;47.998;7.794;2023-02-15T14:22:15;99992.00;;;8.34;100.00
53908;BME280;40469;47.998;7.794;2023-02-15T14:30:14;99993.69;;;8.30;100.00
53908;BME280;40469;47.998;7.794;2023-02-15T14:32:43;99983.34;;;8.35;100.00
53908;BME280;40469;47.998;7.794;2023-02-15T14:35:15;99987.66;;;8.34;100.00
53908;BME280;40469;47.998;7.794;2023-02-15T14:37:52;99984.47;;;8.49;100.00
53908;BME280;40469;47.998;7.794;2023-02-15T14:40:34;99989.41;;;8.35;100.00
53908;BME280;40469;47.998;7.794;2023-02-15T14:45:50;99985.25;;;7.93;100.00
53908;BME280;40469;47.998;7.794;2023-02-15T14:48:25;99982.81;;;8.03;100.00
53908;BME280;40469;47.998;7.794;2023-02-15T14:50:54;99988.94;;;8.06;100.00
53908;BME280;40469;47.998;7.794;2023-02-15T14:53:33;99986.13;;;7.92;100.00
53908;BME280;40469;47.998;7.794;2023-02-15T14:56:15;99984.28;;;7.87;100.00
53908;BME280;40469;47.998;7.794;2023-02-15T15:01:27;99983.28;;;7.78;100.00
53908;BME280;40469;47.998;7.794;2023-02-15T15:03:56;99983.50;;;7.91;100.00
53908;BME280;40469;47.998;7.794;2023-02-15T15:06:31;99980.31;;;8.09;100.00
53908;BME280;40469;47.998;7.794;2023-02-15T15:09:11;99984.31;;;7.90;100.00
53908;BME280;40469;47.998;7.794;2023-02-15T15:11:38;99980.66;;;7.77;100.00
53908;BME280;40469;47.998;7.794;2023-02-15T15:14:04;99987.44;;;7.70;100.00
53908;BME280;40469;47.998;7.794;2023-02-15T15:16:33;99987.34;;;7.64;100.00
53908;BME280;40469;47.998;7.794;2023-02-15T15:19:11;99987.91;;;7.48;100.00
53908;BME280;40469;47.998;7.794;2023-02-15T15:47:15;100008.88;;;6.00;100.00
53908;BME280;40469;47.998;7.794;2023-02-15T15:49:47;100006.38;;;5.73;100.00
53908;BME280;40469;47.998;7.794;2023-02-15T15:52:18;100016.50;;;5.64;100.00